sensor_id;sensor_type;location;lat;lon;timestamp;temperature;humidity
38223;DHT22;24024;51.186;6.458;2023-07-31T00:00:53;18.80;77.60
38223;DHT22;24024;51.186;6.458;2023-07-31T00:03:20;18.90;77.40
38223;DHT22;24024;51.186;6.458;2023-07-31T00:05:47;19.00;76.80
38223;DHT22;24024;51.186;6.458;2023-07-31T00:08:16;19.00;76.80
38223;DHT22;24024;51.186;6.458;2023-07-31T00:10:43;18.90;76.90
38223;DHT22;24024;51.186;6.458;2023-07-31T00:13:12;19.00;76.80
38223;DHT22;24024;51.186;6.458;2023-07-31T00:15:41;19.10;76.80
38223;DHT22;24024;51.186;6.458;2023-07-31T00:18:08;19.20;76.30
38223;DHT22;24024;51.186;6.458;2023-07-31T00:20:35;19.20;76.30
38223;DHT22;24024;51.186;6.458;2023-07-31T00:23:03;19.10;76.20
38223;DHT22;24024;51.186;6.458;2023-07-31T00:25:30;19.20;76.20
38223;DHT22;24024;51.186;6.458;2023-07-31T00:27:57;19.10;76.10
38223;DHT22;24024;51.186;6.458;2023-07-31T00:30:23;19.10;76.00
38223;DHT22;24024;51.186;6.458;2023-07-31T00:32:56;19.30;75.80
38223;DHT22;24024;51.186;6.458;2023-07-31T00:35:22;19.30;75.10
38223;DHT22;24024;51.186;6.458;2023-07-31T00:37:52;19.30;75.20
38223;DHT22;24024;51.186;6.458;2023-07-31T00:40:18;19.30;74.80
38223;DHT22;24024;51.186;6.458;2023-07-31T00:42:48;19.30;74.70
38223;DHT22;24024;51.186;6.458;2023-07-31T00:45:19;19.10;75.20
38223;DHT22;24024;51.186;6.458;2023-07-31T00:47:48;19.10;75.50
38223;DHT22;24024;51.186;6.458;2023-07-31T00:50:17;19.00;75.30
38223;DHT22;24024;51.186;6.458;2023-07-31T00:52:44;19.10;75.20
38223;DHT22;24024;51.186;6.458;2023-07-31T00:55:11;19.10;75.20
38223;DHT22;24024;51.186;6.458;2023-07-31T00:57:41;19.10;74.70
38223;DHT22;24024;51.186;6.458;2023-07-31T01:00:09;19.30;74.50
38223;DHT22;24024;51.186;6.458;2023-07-31T01:02:36;19.40;74.20
38223;DHT22;24024;51.186;6.458;2023-07-31T01:05:06;19.50;73.90
38223;DHT22;24024;51.186;6.458;2023-07-31T01:07:51;19.40;73.80
38223;DHT22;24024;51.186;6.458;2023-07-31T01:10:33;19.20;74.20
38223;DHT22;24024;51.186;6.458;2023-07-31T01:13:06;19.10;74.70
38223;DHT22;24024;51.186;6.458;2023-07-31T01:15:33;19.20;74.50
38223;DHT22;24024;51.186;6.458;2023-07-31T01:18:02;19.10;74.30
38223;DHT22;24024;51.186;6.458;2023-07-31T01:20:34;19.10;74.70
38223;DHT22;24024;51.186;6.458;2023-07-31T01:23:35;19.00;74.70
38223;DHT22;24024;51.186;6.458;2023-07-31T01:26:17;19.00;74.50
38223;DHT22;24024;51.186;6.458;2023-07-31T01:31:24;19.10;73.50
38223;DHT22;24024;51.186;6.458;2023-07-31T01:33:53;19.20;73.40
38223;DHT22;24024;51.186;6.458;2023-07-31T01:36:21;19.20;73.20
38223;DHT22;24024;51.186;6.458;2023-07-31T01:38:48;19.20;72.90
38223;DHT22;24024;51.186;6.458;2023-07-31T01:41:17;19.10;72.90
38223;DHT22;24024;51.186;6.458;2023-07-31T01:43:45;19.10;73.60
38223;DHT22;24024;51.186;6.458;2023-07-31T01:46:15;19.10;73.50
38223;DHT22;24024;51.186;6.458;2023-07-31T01:48:49;19.00;73.60
38223;DHT22;24024;51.186;6.458;2023-07-31T01:51:16;19.00;73.70
38223;DHT22;24024;51.186;6.458;2023-07-31T01:53:45;18.90;74.20
38223;DHT22;24024;51.186;6.458;2023-07-31T01:56:12;18.90;74.00
38223;DHT22;24024;51.186;6.458;2023-07-31T01:58:41;19.10;73.80
38223;DHT22;24024;51.186;6.458;2023-07-31T02:01:08;19.00;74.00
38223;DHT22;24024;51.186;6.458;2023-07-31T02:03:35;19.10;73.50
38223;DHT22;24024;51.186;6.458;2023-07-31T02:06:02;18.90;74.50
38223;DHT22;24024;51.186;6.458;2023-07-31T02:08:28;19.10;73.90
38223;DHT22;24024;51.186;6.458;2023-07-31T02:10:58;19.20;73.70
38223;DHT22;24024;51.186;6.458;2023-07-31T02:13:27;19.20;73.60
38223;DHT22;24024;51.186;6.458;2023-07-31T02:15:53;19.10;74.00
38223;DHT22;24024;51.186;6.458;2023-07-31T02:18:22;19.20;73.90
38223;DHT22;24024;51.186;6.458;2023-07-31T02:20:52;19.10;74.10
38223;DHT22;24024;51.186;6.458;2023-07-31T02:23:20;19.30;73.80
38223;DHT22;24024;51.186;6.458;2023-07-31T02:25:46;19.40;73.30
38223;DHT22;24024;51.186;6.458;2023-07-31T02:28:16;19.40;73.60
38223;DHT22;24024;51.186;6.458;2023-07-31T02:30:46;19.50;73.40
38223;DHT22;24024;51.186;6.458;2023-07-31T02:33:13;19.50;73.40
38223;DHT22;24024;51.186;6.458;2023-07-31T02:35:42;19.50;73.30
38223;DHT22;24024;51.186;6.458;2023-07-31T02:38:11;19.30;74.00
38223;DHT22;24024;51.186;6.458;2023-07-31T02:40:40;19.20;74.60
38223;DHT22;24024;51.186;6.458;2023-07-31T02:43:10;19.20;74.70
38223;DHT22;24024;51.186;6.458;2023-07-31T02:45:37;19.20;74.80
38223;DHT22;24024;51.186;6.458;2023-07-31T02:48:03;19.10;75.00
38223;DHT22;24024;51.186;6.458;2023-07-31T02:50:31;19.20;74.90
38223;DHT22;24024;51.186;6.458;2023-07-31T02:52:59;19.40;74.00
38223;DHT22;24024;51.186;6.458;2023-07-31T02:55:26;19.20;74.60
38223;DHT22;24024;51.186;6.458;2023-07-31T02:57:53;19.20;74.50
38223;DHT22;24024;51.186;6.458;2023-07-31T03:00:20;19.20;74.60
38223;DHT22;24024;51.186;6.458;2023-07-31T03:02:49;19.30;74.50
38223;DHT22;24024;51.186;6.458;2023-07-31T03:05:16;19.50;73.90
38223;DHT22;24024;51.186;6.458;2023-07-31T03:07:47;19.50;73.60
38223;DHT22;24024;51.186;6.458;2023-07-31T03:10:14;19.50;73.60
38223;DHT22;24024;51.186;6.458;2023-07-31T03:12:48;19.50;73.60
38223;DHT22;24024;51.186;6.458;2023-07-31T03:15:17;19.50;73.50
38223;DHT22;24024;51.186;6.458;2023-07-31T03:17:46;19.60;73.70
38223;DHT22;24024;51.186;6.458;2023-07-31T03:20:15;19.50;73.30
38223;DHT22;24024;51.186;6.458;2023-07-31T03:22:48;19.50;73.60
38223;DHT22;24024;51.186;6.458;2023-07-31T03:25:15;19.50;73.60
38223;DHT22;24024;51.186;6.458;2023-07-31T03:27:41;19.60;73.30
38223;DHT22;24024;51.186;6.458;2023-07-31T03:30:08;19.60;73.40
38223;DHT22;24024;51.186;6.458;2023-07-31T03:32:35;19.50;73.60
38223;DHT22;24024;51.186;6.458;2023-07-31T03:35:02;19.60;73.40
38223;DHT22;24024;51.186;6.458;2023-07-31T03:37:32;19.70;73.00
38223;DHT22;24024;51.186;6.458;2023-07-31T03:39:59;19.60;73.00
38223;DHT22;24024;51.186;6.458;2023-07-31T03:42:25;19.60;73.10
38223;DHT22;24024;51.186;6.458;2023-07-31T03:44:54;19.70;72.80
38223;DHT22;24024;51.186;6.458;2023-07-31T03:47:21;19.60;73.30
38223;DHT22;24024;51.186;6.458;2023-07-31T03:49:50;19.60;73.60
38223;DHT22;24024;51.186;6.458;2023-07-31T03:52:17;19.70;73.20
38223;DHT22;24024;51.186;6.458;2023-07-31T03:54:46;19.60;73.50
38223;DHT22;24024;51.186;6.458;2023-07-31T03:57:13;19.50;73.80
38223;DHT22;24024;51.186;6.458;2023-07-31T03:59:39;19.50;73.90
38223;DHT22;24024;51.186;6.458;2023-07-31T04:02:06;19.40;74.30
38223;DHT22;24024;51.186;6.458;2023-07-31T04:04:33;19.40;74.30
38223;DHT22;24024;51.186;6.458;2023-07-31T04:07:07;19.50;74.10
38223;DHT22;24024;51.186;6.458;2023-07-31T04:09:36;19.60;73.90
38223;DHT22;24024;51.186;6.458;2023-07-31T04:12:03;19.60;74.00
38223;DHT22;24024;51.186;6.458;2023-07-31T04:14:30;19.60;73.60
38223;DHT22;24024;51.186;6.458;2023-07-31T04:16:56;19.70;73.40
38223;DHT22;24024;51.186;6.458;2023-07-31T04:19:24;19.60;73.50
38223;DHT22;24024;51.186;6.458;2023-07-31T04:21:55;19.80;73.20
38223;DHT22;24024;51.186;6.458;2023-07-31T04:24:24;20.00;72.60
38223;DHT22;24024;51.186;6.458;2023-07-31T04:26:52;20.00;72.40
38223;DHT22;24024;51.186;6.458;2023-07-31T04:29:19;20.10;72.00
38223;DHT22;24024;51.186;6.458;2023-07-31T04:31:50;20.00;72.50
38223;DHT22;24024;51.186;6.458;2023-07-31T04:34:16;20.00;72.60
38223;DHT22;24024;51.186;6.458;2023-07-31T04:36:46;19.90;72.70
38223;DHT22;24024;51.186;6.458;2023-07-31T04:39:12;20.00;72.50
38223;DHT22;24024;51.186;6.458;2023-07-31T04:41:41;20.10;72.30
38223;DHT22;24024;51.186;6.458;2023-07-31T04:44:08;20.00;72.30
38223;DHT22;24024;51.186;6.458;2023-07-31T04:46:37;20.00;72.30
38223;DHT22;24024;51.186;6.458;2023-07-31T04:49:07;19.80;72.70
38223;DHT22;24024;51.186;6.458;2023-07-31T04:51:36;19.80;72.90
38223;DHT22;24024;51.186;6.458;2023-07-31T04:54:03;20.00;72.60
38223;DHT22;24024;51.186;6.458;2023-07-31T04:56:29;20.10;72.20
38223;DHT22;24024;51.186;6.458;2023-07-31T04:58:56;20.00;72.20
38223;DHT22;24024;51.186;6.458;2023-07-31T05:01:25;19.90;72.50
38223;DHT22;24024;51.186;6.458;2023-07-31T05:03:52;19.80;72.50
38223;DHT22;24024;51.186;6.458;2023-07-31T05:06:19;19.90;72.60
38223;DHT22;24024;51.186;6.458;2023-07-31T05:08:49;19.90;72.40
38223;DHT22;24024;51.186;6.458;2023-07-31T05:11:16;19.80;72.70
38223;DHT22;24024;51.186;6.458;2023-07-31T05:13:47;19.90;72.70
38223;DHT22;24024;51.186;6.458;2023-07-31T05:16:18;19.80;72.70
38223;DHT22;24024;51.186;6.458;2023-07-31T05:18:45;19.90;72.50
38223;DHT22;24024;51.186;6.458;2023-07-31T05:21:14;19.90;72.40
38223;DHT22;24024;51.186;6.458;2023-07-31T05:23:41;19.80;72.40
38223;DHT22;24024;51.186;6.458;2023-07-31T05:26:08;19.80;72.40
38223;DHT22;24024;51.186;6.458;2023-07-31T05:28:38;19.80;72.40
38223;DHT22;24024;51.186;6.458;2023-07-31T05:31:09;19.80;72.40
38223;DHT22;24024;51.186;6.458;2023-07-31T05:33:41;20.00;72.10
38223;DHT22;24024;51.186;6.458;2023-07-31T05:36:10;20.10;71.70
38223;DHT22;24024;51.186;6.458;2023-07-31T05:38:37;20.10;71.40
38223;DHT22;24024;51.186;6.458;2023-07-31T05:41:07;20.00;71.70
38223;DHT22;24024;51.186;6.458;2023-07-31T05:43:37;20.00;71.70
38223;DHT22;24024;51.186;6.458;2023-07-31T05:46:04;20.00;72.00
38223;DHT22;24024;51.186;6.458;2023-07-31T05:48:32;20.10;71.60
38223;DHT22;24024;51.186;6.458;2023-07-31T05:51:01;20.10;71.80
38223;DHT22;24024;51.186;6.458;2023-07-31T05:53:30;20.10;72.50
38223;DHT22;24024;51.186;6.458;2023-07-31T05:55:57;19.80;73.80
38223;DHT22;24024;51.186;6.458;2023-07-31T05:58:28;19.80;74.20
38223;DHT22;24024;51.186;6.458;2023-07-31T06:00:55;19.60;74.50
38223;DHT22;24024;51.186;6.458;2023-07-31T06:03:22;19.60;74.80
38223;DHT22;24024;51.186;6.458;2023-07-31T06:05:48;19.60;74.90
38223;DHT22;24024;51.186;6.458;2023-07-31T06:08:15;19.70;74.90
38223;DHT22;24024;51.186;6.458;2023-07-31T06:10:45;19.70;74.70
38223;DHT22;24024;51.186;6.458;2023-07-31T06:13:11;19.60;74.70
38223;DHT22;24024;51.186;6.458;2023-07-31T06:15:38;19.50;75.40
38223;DHT22;24024;51.186;6.458;2023-07-31T06:18:05;19.50;75.70
38223;DHT22;24024;51.186;6.458;2023-07-31T06:20:37;19.70;75.20
38223;DHT22;24024;51.186;6.458;2023-07-31T06:23:07;19.60;75.30
38223;DHT22;24024;51.186;6.458;2023-07-31T06:25:38;19.60;75.90
38223;DHT22;24024;51.186;6.458;2023-07-31T06:28:04;19.60;75.60
38223;DHT22;24024;51.186;6.458;2023-07-31T06:30:34;19.60;75.50
38223;DHT22;24024;51.186;6.458;2023-07-31T06:33:03;19.70;75.40
38223;DHT22;24024;51.186;6.458;2023-07-31T06:35:30;19.60;75.50
38223;DHT22;24024;51.186;6.458;2023-07-31T06:37:59;19.70;75.50
38223;DHT22;24024;51.186;6.458;2023-07-31T06:40:26;19.60;75.10
38223;DHT22;24024;51.186;6.458;2023-07-31T06:42:55;19.90;75.10
38223;DHT22;24024;51.186;6.458;2023-07-31T06:45:24;20.00;74.90
38223;DHT22;24024;51.186;6.458;2023-07-31T06:47:51;20.00;74.60
38223;DHT22;24024;51.186;6.458;2023-07-31T06:50:18;20.00;74.40
38223;DHT22;24024;51.186;6.458;2023-07-31T06:52:45;19.70;75.10
38223;DHT22;24024;51.186;6.458;2023-07-31T06:55:20;19.50;75.90
38223;DHT22;24024;51.186;6.458;2023-07-31T06:57:48;19.30;76.60
38223;DHT22;24024;51.186;6.458;2023-07-31T07:00:18;19.30;76.60
38223;DHT22;24024;51.186;6.458;2023-07-31T07:02:46;19.30;76.80
38223;DHT22;24024;51.186;6.458;2023-07-31T07:05:17;19.20;76.70
38223;DHT22;24024;51.186;6.458;2023-07-31T07:07:48;19.30;76.70
38223;DHT22;24024;51.186;6.458;2023-07-31T07:10:16;19.30;76.80
38223;DHT22;24024;51.186;6.458;2023-07-31T07:12:43;19.10;77.10
38223;DHT22;24024;51.186;6.458;2023-07-31T07:15:10;19.10;77.30
38223;DHT22;24024;51.186;6.458;2023-07-31T07:17:39;19.10;77.60
38223;DHT22;24024;51.186;6.458;2023-07-31T07:20:09;19.10;77.80
38223;DHT22;24024;51.186;6.458;2023-07-31T07:22:36;19.00;77.80
38223;DHT22;24024;51.186;6.458;2023-07-31T07:25:04;19.10;77.70
38223;DHT22;24024;51.186;6.458;2023-07-31T07:27:33;19.00;77.70
38223;DHT22;24024;51.186;6.458;2023-07-31T07:30:00;18.90;78.40
38223;DHT22;24024;51.186;6.458;2023-07-31T07:32:27;18.90;78.70
38223;DHT22;24024;51.186;6.458;2023-07-31T07:34:55;19.00;78.40
38223;DHT22;24024;51.186;6.458;2023-07-31T07:37:22;18.80;78.50
38223;DHT22;24024;51.186;6.458;2023-07-31T07:39:49;18.60;79.00
38223;DHT22;24024;51.186;6.458;2023-07-31T07:42:18;18.70;78.60
38223;DHT22;24024;51.186;6.458;2023-07-31T07:44:45;18.70;78.60
38223;DHT22;24024;51.186;6.458;2023-07-31T07:47:14;18.80;78.50
38223;DHT22;24024;51.186;6.458;2023-07-31T07:49:40;18.80;78.20
38223;DHT22;24024;51.186;6.458;2023-07-31T07:52:07;18.80;78.80
38223;DHT22;24024;51.186;6.458;2023-07-31T07:54:34;18.70;79.10
38223;DHT22;24024;51.186;6.458;2023-07-31T07:57:01;18.60;79.10
38223;DHT22;24024;51.186;6.458;2023-07-31T07:59:27;18.80;78.70
38223;DHT22;24024;51.186;6.458;2023-07-31T08:01:56;18.80;79.00
38223;DHT22;24024;51.186;6.458;2023-07-31T08:04:26;18.80;78.90
38223;DHT22;24024;51.186;6.458;2023-07-31T08:06:53;18.80;79.10
38223;DHT22;24024;51.186;6.458;2023-07-31T08:09:20;18.80;79.00
38223;DHT22;24024;51.186;6.458;2023-07-31T08:11:48;18.80;78.90
38223;DHT22;24024;51.186;6.458;2023-07-31T08:14:18;18.60;79.10
38223;DHT22;24024;51.186;6.458;2023-07-31T08:16:49;18.60;79.00
38223;DHT22;24024;51.186;6.458;2023-07-31T08:19:18;18.60;79.20
38223;DHT22;24024;51.186;6.458;2023-07-31T08:21:45;18.70;79.20
38223;DHT22;24024;51.186;6.458;2023-07-31T08:24:12;18.70;79.40
38223;DHT22;24024;51.186;6.458;2023-07-31T08:26:39;18.70;79.70
38223;DHT22;24024;51.186;6.458;2023-07-31T08:29:09;19.00;78.70
38223;DHT22;24024;51.186;6.458;2023-07-31T08:31:39;19.10;78.50
38223;DHT22;24024;51.186;6.458;2023-07-31T08:34:06;19.10;78.10
38223;DHT22;24024;51.186;6.458;2023-07-31T08:36:33;19.10;78.20
38223;DHT22;24024;51.186;6.458;2023-07-31T08:39:02;19.10;78.30
38223;DHT22;24024;51.186;6.458;2023-07-31T08:41:30;19.00;78.60
38223;DHT22;24024;51.186;6.458;2023-07-31T08:43:57;19.00;79.00
38223;DHT22;24024;51.186;6.458;2023-07-31T08:46:24;19.00;79.10
38223;DHT22;24024;51.186;6.458;2023-07-31T08:48:52;19.00;79.20
38223;DHT22;24024;51.186;6.458;2023-07-31T08:51:20;18.90;79.40
38223;DHT22;24024;51.186;6.458;2023-07-31T08:53:47;19.00;79.50
38223;DHT22;24024;51.186;6.458;2023-07-31T08:56:17;18.90;79.80
38223;DHT22;24024;51.186;6.458;2023-07-31T08:58:45;18.80;80.20
38223;DHT22;24024;51.186;6.458;2023-07-31T09:01:13;19.00;79.80
38223;DHT22;24024;51.186;6.458;2023-07-31T09:03:40;18.90;80.10
38223;DHT22;24024;51.186;6.458;2023-07-31T09:06:12;19.00;80.00
38223;DHT22;24024;51.186;6.458;2023-07-31T09:08:41;19.10;79.80
38223;DHT22;24024;51.186;6.458;2023-07-31T09:11:08;19.20;79.60
38223;DHT22;24024;51.186;6.458;2023-07-31T09:13:35;19.20;79.50
38223;DHT22;24024;51.186;6.458;2023-07-31T09:16:03;19.40;79.30
38223;DHT22;24024;51.186;6.458;2023-07-31T09:18:30;19.30;79.10
38223;DHT22;24024;51.186;6.458;2023-07-31T09:21:03;19.10;79.40
38223;DHT22;24024;51.186;6.458;2023-07-31T09:24:00;19.00;79.90
38223;DHT22;24024;51.186;6.458;2023-07-31T09:26:35;19.10;80.00
38223;DHT22;24024;51.186;6.458;2023-07-31T09:29:06;19.10;80.10
38223;DHT22;24024;51.186;6.458;2023-07-31T09:31:42;19.10;80.00
38223;DHT22;24024;51.186;6.458;2023-07-31T09:34:09;19.10;80.10
38223;DHT22;24024;51.186;6.458;2023-07-31T09:36:44;19.00;80.20
38223;DHT22;24024;51.186;6.458;2023-07-31T09:39:17;19.00;80.10
38223;DHT22;24024;51.186;6.458;2023-07-31T09:41:56;18.90;80.50
38223;DHT22;24024;51.186;6.458;2023-07-31T09:44:38;19.10;80.30
38223;DHT22;24024;51.186;6.458;2023-07-31T09:47:08;19.10;80.30
38223;DHT22;24024;51.186;6.458;2023-07-31T09:49:47;19.10;80.20
38223;DHT22;24024;51.186;6.458;2023-07-31T09:52:14;19.10;80.10
38223;DHT22;24024;51.186;6.458;2023-07-31T09:54:45;19.10;80.00
38223;DHT22;24024;51.186;6.458;2023-07-31T09:57:17;19.00;80.20
38223;DHT22;24024;51.186;6.458;2023-07-31T09:59:47;19.10;80.10
38223;DHT22;24024;51.186;6.458;2023-07-31T10:02:22;19.10;80.00
38223;DHT22;24024;51.186;6.458;2023-07-31T10:04:57;19.10;79.90
38223;DHT22;24024;51.186;6.458;2023-07-31T10:07:30;19.20;79.80
38223;DHT22;24024;51.186;6.458;2023-07-31T10:09:59;19.30;79.50
38223;DHT22;24024;51.186;6.458;2023-07-31T10:12:30;19.20;79.70
38223;DHT22;24024;51.186;6.458;2023-07-31T10:14:59;19.20;79.40
38223;DHT22;24024;51.186;6.458;2023-07-31T10:17:28;19.20;79.50
38223;DHT22;24024;51.186;6.458;2023-07-31T10:19:58;19.20;79.90
38223;DHT22;24024;51.186;6.458;2023-07-31T10:22:26;19.40;79.70
38223;DHT22;24024;51.186;6.458;2023-07-31T10:24:54;19.40;79.40
38223;DHT22;24024;51.186;6.458;2023-07-31T10:27:24;19.40;79.00
38223;DHT22;24024;51.186;6.458;2023-07-31T10:29:53;19.50;78.90
38223;DHT22;24024;51.186;6.458;2023-07-31T10:32:24;19.50;79.00
38223;DHT22;24024;51.186;6.458;2023-07-31T10:34:54;19.50;78.90
38223;DHT22;24024;51.186;6.458;2023-07-31T10:42:52;19.40;78.70
38223;DHT22;24024;51.186;6.458;2023-07-31T10:45:37;19.30;78.80
38223;DHT22;24024;51.186;6.458;2023-07-31T10:48:14;19.40;78.80
38223;DHT22;24024;51.186;6.458;2023-07-31T10:53:29;19.30;78.70
38223;DHT22;24024;51.186;6.458;2023-07-31T10:56:07;19.30;78.40
38223;DHT22;24024;51.186;6.458;2023-07-31T10:58:36;19.40;78.50
38223;DHT22;24024;51.186;6.458;2023-07-31T11:01:05;19.60;78.10
38223;DHT22;24024;51.186;6.458;2023-07-31T11:03:47;19.60;77.60
38223;DHT22;24024;51.186;6.458;2023-07-31T11:06:16;19.70;77.60
38223;DHT22;24024;51.186;6.458;2023-07-31T11:08:49;19.70;77.40
38223;DHT22;24024;51.186;6.458;2023-07-31T11:11:18;19.90;77.00
38223;DHT22;24024;51.186;6.458;2023-07-31T11:13:47;19.80;76.90
38223;DHT22;24024;51.186;6.458;2023-07-31T11:16:22;19.80;77.10
38223;DHT22;24024;51.186;6.458;2023-07-31T11:18:50;19.80;77.00
38223;DHT22;24024;51.186;6.458;2023-07-31T11:21:23;19.70;77.30
38223;DHT22;24024;51.186;6.458;2023-07-31T11:23:58;19.70;77.10
38223;DHT22;24024;51.186;6.458;2023-07-31T11:26:25;19.70;76.90
38223;DHT22;24024;51.186;6.458;2023-07-31T11:28:52;19.70;77.00
38223;DHT22;24024;51.186;6.458;2023-07-31T11:31:19;19.80;77.00
38223;DHT22;24024;51.186;6.458;2023-07-31T11:33:46;19.80;77.20
38223;DHT22;24024;51.186;6.458;2023-07-31T11:36:17;19.70;76.80
38223;DHT22;24024;51.186;6.458;2023-07-31T11:38:45;19.70;76.90
38223;DHT22;24024;51.186;6.458;2023-07-31T11:41:14;19.80;76.50
38223;DHT22;24024;51.186;6.458;2023-07-31T11:43:47;19.90;76.60
38223;DHT22;24024;51.186;6.458;2023-07-31T11:46:14;20.00;76.30
38223;DHT22;24024;51.186;6.458;2023-07-31T11:48:42;20.00;76.10
38223;DHT22;24024;51.186;6.458;2023-07-31T11:51:10;20.10;75.70
38223;DHT22;24024;51.186;6.458;2023-07-31T11:53:43;20.10;75.70
38223;DHT22;24024;51.186;6.458;2023-07-31T11:56:14;20.10;75.90
38223;DHT22;24024;51.186;6.458;2023-07-31T11:58:47;20.10;75.90
38223;DHT22;24024;51.186;6.458;2023-07-31T12:01:15;19.90;75.90
38223;DHT22;24024;51.186;6.458;2023-07-31T12:03:45;19.90;76.10
38223;DHT22;24024;51.186;6.458;2023-07-31T12:06:12;20.00;76.30
38223;DHT22;24024;51.186;6.458;2023-07-31T12:08:39;19.90;76.50
38223;DHT22;24024;51.186;6.458;2023-07-31T12:11:09;19.90;76.60
38223;DHT22;24024;51.186;6.458;2023-07-31T12:13:38;19.80;77.30
38223;DHT22;24024;51.186;6.458;2023-07-31T12:16:05;20.00;77.10
38223;DHT22;24024;51.186;6.458;2023-07-31T12:18:35;20.00;77.70
38223;DHT22;24024;51.186;6.458;2023-07-31T12:21:04;20.00;78.10
38223;DHT22;24024;51.186;6.458;2023-07-31T12:23:33;20.00;78.20
38223;DHT22;24024;51.186;6.458;2023-07-31T12:26:09;20.10;78.00
38223;DHT22;24024;51.186;6.458;2023-07-31T12:31:05;20.00;78.60
38223;DHT22;24024;51.186;6.458;2023-07-31T12:33:39;20.00;78.60
38223;DHT22;24024;51.186;6.458;2023-07-31T12:36:11;19.80;79.00
38223;DHT22;24024;51.186;6.458;2023-07-31T12:38:38;20.00;78.80
38223;DHT22;24024;51.186;6.458;2023-07-31T12:41:06;20.00;78.80
38223;DHT22;24024;51.186;6.458;2023-07-31T12:43:35;19.90;78.70
38223;DHT22;24024;51.186;6.458;2023-07-31T12:46:02;19.80;78.90
38223;DHT22;24024;51.186;6.458;2023-07-31T12:48:31;20.00;78.50
38223;DHT22;24024;51.186;6.458;2023-07-31T12:50:58;20.10;78.60
38223;DHT22;24024;51.186;6.458;2023-07-31T12:53:25;20.00;78.50
38223;DHT22;24024;51.186;6.458;2023-07-31T12:55:52;20.00;78.50
38223;DHT22;24024;51.186;6.458;2023-07-31T12:58:20;20.10;78.20
38223;DHT22;24024;51.186;6.458;2023-07-31T13:00:47;20.10;78.10
38223;DHT22;24024;51.186;6.458;2023-07-31T13:03:14;20.10;77.90
38223;DHT22;24024;51.186;6.458;2023-07-31T13:05:42;20.20;77.70
38223;DHT22;24024;51.186;6.458;2023-07-31T13:08:10;20.30;77.40
38223;DHT22;24024;51.186;6.458;2023-07-31T13:10:37;20.40;77.10
38223;DHT22;24024;51.186;6.458;2023-07-31T13:13:07;20.50;76.70
38223;DHT22;24024;51.186;6.458;2023-07-31T13:15:34;20.50;76.20
38223;DHT22;24024;51.186;6.458;2023-07-31T13:18:04;20.60;75.80
38223;DHT22;24024;51.186;6.458;2023-07-31T13:20:31;20.60;75.60
38223;DHT22;24024;51.186;6.458;2023-07-31T13:23:00;20.60;75.10
38223;DHT22;24024;51.186;6.458;2023-07-31T13:25:27;20.60;75.00
38223;DHT22;24024;51.186;6.458;2023-07-31T13:27:56;20.60;74.70
38223;DHT22;24024;51.186;6.458;2023-07-31T13:30:26;20.80;74.30
38223;DHT22;24024;51.186;6.458;2023-07-31T13:32:53;20.80;74.10
38223;DHT22;24024;51.186;6.458;2023-07-31T13:35:20;20.80;73.60
38223;DHT22;24024;51.186;6.458;2023-07-31T13:37:49;20.90;73.90
38223;DHT22;24024;51.186;6.458;2023-07-31T13:40:19;20.80;74.20
38223;DHT22;24024;51.186;6.458;2023-07-31T13:42:48;20.90;73.90
38223;DHT22;24024;51.186;6.458;2023-07-31T13:45:17;21.00;72.90
38223;DHT22;24024;51.186;6.458;2023-07-31T13:47:44;20.90;72.80
38223;DHT22;24024;51.186;6.458;2023-07-31T13:50:11;20.90;73.00
38223;DHT22;24024;51.186;6.458;2023-07-31T13:52:42;21.00;72.80
38223;DHT22;24024;51.186;6.458;2023-07-31T13:55:11;21.00;72.50
38223;DHT22;24024;51.186;6.458;2023-07-31T13:57:38;21.00;73.10
38223;DHT22;24024;51.186;6.458;2023-07-31T14:00:10;21.00;72.70
38223;DHT22;24024;51.186;6.458;2023-07-31T14:02:39;21.10;72.40
38223;DHT22;24024;51.186;6.458;2023-07-31T14:05:06;21.10;72.60
38223;DHT22;24024;51.186;6.458;2023-07-31T14:07:36;21.10;72.50
38223;DHT22;24024;51.186;6.458;2023-07-31T14:10:05;21.10;72.10
38223;DHT22;24024;51.186;6.458;2023-07-31T14:12:32;21.00;72.30
38223;DHT22;24024;51.186;6.458;2023-07-31T14:15:09;20.90;72.30
38223;DHT22;24024;51.186;6.458;2023-07-31T14:17:38;20.80;72.50
38223;DHT22;24024;51.186;6.458;2023-07-31T14:20:06;20.80;72.50
38223;DHT22;24024;51.186;6.458;2023-07-31T14:22:36;20.90;72.70
38223;DHT22;24024;51.186;6.458;2023-07-31T14:25:05;20.80;72.90
38223;DHT22;24024;51.186;6.458;2023-07-31T14:27:32;20.80;73.10
38223;DHT22;24024;51.186;6.458;2023-07-31T14:29:59;20.70;73.20
38223;DHT22;24024;51.186;6.458;2023-07-31T14:32:26;20.70;73.10
38223;DHT22;24024;51.186;6.458;2023-07-31T14:34:53;20.80;72.70
38223;DHT22;24024;51.186;6.458;2023-07-31T14:37:21;20.90;72.40
38223;DHT22;24024;51.186;6.458;2023-07-31T14:39:50;20.90;72.70
38223;DHT22;24024;51.186;6.458;2023-07-31T14:42:20;20.90;72.00
38223;DHT22;24024;51.186;6.458;2023-07-31T14:44:49;20.80;72.10
38223;DHT22;24024;51.186;6.458;2023-07-31T14:47:18;20.80;72.00
38223;DHT22;24024;51.186;6.458;2023-07-31T14:49:45;20.90;71.70
38223;DHT22;24024;51.186;6.458;2023-07-31T14:52:11;21.10;71.20
38223;DHT22;24024;51.186;6.458;2023-07-31T14:54:38;21.10;70.90
38223;DHT22;24024;51.186;6.458;2023-07-31T14:57:07;21.10;70.90
38223;DHT22;24024;51.186;6.458;2023-07-31T14:59:34;21.10;70.90
38223;DHT22;24024;51.186;6.458;2023-07-31T15:02:01;21.10;70.80
38223;DHT22;24024;51.186;6.458;2023-07-31T15:04:28;21.10;71.00
38223;DHT22;24024;51.186;6.458;2023-07-31T15:06:57;21.00;70.90
38223;DHT22;24024;51.186;6.458;2023-07-31T15:09:24;20.90;71.00
38223;DHT22;24024;51.186;6.458;2023-07-31T15:11:51;20.80;71.10
38223;DHT22;24024;51.186;6.458;2023-07-31T15:14:20;20.80;70.90
38223;DHT22;24024;51.186;6.458;2023-07-31T15:16:46;20.80;70.60
38223;DHT22;24024;51.186;6.458;2023-07-31T15:19:14;20.70;70.60
38223;DHT22;24024;51.186;6.458;2023-07-31T15:21:41;20.70;70.90
38223;DHT22;24024;51.186;6.458;2023-07-31T15:24:08;20.70;70.80
38223;DHT22;24024;51.186;6.458;2023-07-31T15:26:36;20.80;70.90
38223;DHT22;24024;51.186;6.458;2023-07-31T15:29:07;20.80;71.00
38223;DHT22;24024;51.186;6.458;2023-07-31T15:31:46;20.80;71.20
38223;DHT22;24024;51.186;6.458;2023-07-31T15:34:13;20.90;71.40
38223;DHT22;24024;51.186;6.458;2023-07-31T15:36:40;20.90;71.40
38223;DHT22;24024;51.186;6.458;2023-07-31T15:39:10;20.80;71.60
38223;DHT22;24024;51.186;6.458;2023-07-31T15:41:38;20.80;71.60
38223;DHT22;24024;51.186;6.458;2023-07-31T15:44:05;20.80;71.70
38223;DHT22;24024;51.186;6.458;2023-07-31T15:46:33;20.90;71.60
38223;DHT22;24024;51.186;6.458;2023-07-31T15:49:00;20.60;73.00
38223;DHT22;24024;51.186;6.458;2023-07-31T15:51:30;20.60;73.10
38223;DHT22;24024;51.186;6.458;2023-07-31T15:53:57;20.70;73.10